FR-0233 weather

Hôtel Royal Heliport
Evian-les-Bains, Rhône Alpes, France

Public forecast

Using degrees Celsius for public forecast. Weather courtesy of forecast.io.

METAR (pilot weather report)

Closest report is Geneva Cointrin International Airport, 22.3 nm (41.3 km) WSW. Retrieved 2019/09/19 17:20 UTC (25 minutes ago):

LSGG 191720Z 03012KT CAVOK 18/03 Q1022 NOSIG

TAF (pilot weather forecast)

Closest forecast is Geneva Cointrin International Airport, 22.3 nm (41.3 km) WSW. Retrieved 2019/09/19 15:33 UTC (2 hours ago):

TAF TAF LSGG 191425Z 1915/2021 04015KT CAVOK TX19/1915Z TN10/2005Z TX21/2015Z BECMG 1921/1924 04005KT BECMG 2003/2005 9999 FEW025 BECMG 2012/2014 CAVOK